Yonkers, New York
Current Conditions -  °F | °C
As of 12:51 AM on Saturday 20 Dec 2014 (Local Time) from KTEB Reporting Station
Overcast Overcast  
Wind Chill: 26°   Ceiling: 3000
Heat Index: 32°   Visibility: 10mi
Dew Point: 21°   Wind: 6mph
Humidity: 64%   Direction: 340°NNW
Pressure: 30.19"   Gusts: NA
Location:  40.93°N, 73.9°W
Report Text: KTEB 200551Z 34005KT 10SM OVC030 00/M06 A3019 RMK AO2 SLP223 T00001061 10006 21006 50008
Loading
Personal Weather Stations






























Interactive Weather Map New forecast layout! Learn more

10-Day Weather Forecast

Advertisements
Track Severe Weather on mobile